createdAt,value
2022-09-01T00:00:29.237Z,1.05
2022-09-01T00:03:03.969Z,2.03
2022-09-01T00:05:33.274Z,1.55
2022-09-01T00:08:01.099Z,3.43
2022-09-01T00:10:29.908Z,1.77
2022-09-01T00:12:58.383Z,2.55
2022-09-01T00:15:27.263Z,1.98
2022-09-01T00:17:54.924Z,1.70
2022-09-01T00:20:23.032Z,1.15
2022-09-01T00:22:50.736Z,2.42
2022-09-01T00:25:20.300Z,0.85
2022-09-01T00:27:49.804Z,1.58
2022-09-01T00:30:19.547Z,3.28
2022-09-01T00:32:48.057Z,2.05
2022-09-01T00:35:19.571Z,1.75
2022-09-01T00:37:47.282Z,1.63
2022-09-01T00:40:17.245Z,3.42
2022-09-01T00:42:45.939Z,1.00
2022-09-01T00:45:13.764Z,0.82
2022-09-01T00:47:42.401Z,4.43
2022-09-01T00:50:13.582Z,1.10
2022-09-01T00:52:52.932Z,2.35
2022-09-01T00:55:29.512Z,1.55
2022-09-01T00:58:01.374Z,1.45
2022-09-01T01:00:32.817Z,1.83
2022-09-01T01:03:00.659Z,3.22
2022-09-01T01:05:38.589Z,1.23
2022-09-01T01:08:12.138Z,0.90
2022-09-01T01:10:42.681Z,3.05
2022-09-01T01:13:15.578Z,3.17
2022-09-01T01:15:45.094Z,0.77
2022-09-01T01:18:16.952Z,1.75
2022-09-01T01:21:22.958Z,1.23
2022-09-01T01:26:30.207Z,1.70
2022-09-01T01:28:58.584Z,1.52
2022-09-01T01:31:29.784Z,1.77
2022-09-01T01:34:00.845Z,0.73
2022-09-01T01:36:35.904Z,2.63
2022-09-01T01:39:17.992Z,1.02
2022-09-01T01:41:49.568Z,0.70
2022-09-01T01:44:28.048Z,3.28
2022-09-01T01:46:59.155Z,2.55
2022-09-01T01:49:31.174Z,0.50
2022-09-01T01:51:59.155Z,0.93
2022-09-01T01:54:32.554Z,0.60
2022-09-01T01:57:04.471Z,1.52
2022-09-01T01:59:33.914Z,0.40
2022-09-01T02:02:04.023Z,0.45
2022-09-01T02:04:34.219Z,1.52
2022-09-01T02:07:12.146Z,0.57
2022-09-01T02:09:46.392Z,0.82
2022-09-01T02:12:19.694Z,2.10
2022-09-01T02:14:48.618Z,1.20
2022-09-01T02:19:47.467Z,0.95
2022-09-01T02:24:49.182Z,1.85
2022-09-01T02:27:20.414Z,1.13
2022-09-01T02:29:51.162Z,1.88
2022-09-01T02:32:22.186Z,1.65
2022-09-01T02:34:53.809Z,4.00
2022-09-01T02:37:25.349Z,2.60
2022-09-01T02:39:54.006Z,1.48
2022-09-01T02:42:27.086Z,0.90
2022-09-01T02:44:56.720Z,1.58
2022-09-01T02:47:28.170Z,2.35
2022-09-01T02:49:58.545Z,1.95
2022-09-01T02:52:26.191Z,1.10
2022-09-01T02:54:55.593Z,0.98
2022-09-01T02:57:24.516Z,4.18
2022-09-01T02:59:52.165Z,1.85
2022-09-01T03:02:19.703Z,1.75
2022-09-01T03:04:54.465Z,0.85
2022-09-01T03:07:23.800Z,0.70
2022-09-01T03:09:52.825Z,1.17
2022-09-01T03:12:20.594Z,1.93
2022-09-01T03:14:48.197Z,0.52
2022-09-01T03:17:16.051Z,1.50
2022-09-01T03:19:45.298Z,2.78
2022-09-01T03:22:13.083Z,0.28
2022-09-01T03:24:41.019Z,3.05
2022-09-01T03:27:11.763Z,0.25
2022-09-01T03:29:39.409Z,0.30
2022-09-01T03:32:08.386Z,1.75
2022-09-01T03:34:36.995Z,1.02
2022-09-01T03:37:07.571Z,1.07
2022-09-01T03:39:35.997Z,1.85
2022-09-01T03:42:04.662Z,1.52
2022-09-01T03:44:38.369Z,1.83
2022-09-01T03:47:10.916Z,0.40
2022-09-01T03:49:39.433Z,1.65
2022-09-01T03:52:09.112Z,0.98
2022-09-01T03:54:37.896Z,1.10
2022-09-01T03:57:10.224Z,0.88
2022-09-01T03:59:43.408Z,0.30
2022-09-01T04:02:12.793Z,2.53
2022-09-01T04:07:08.725Z,0.47
2022-09-01T04:09:37.318Z,1.50
2022-09-01T04:12:09.059Z,0.90
2022-09-01T04:14:38.532Z,1.40
2022-09-01T04:17:29.930Z,0.50
2022-09-01T04:19:58.429Z,0.82
2022-09-01T04:22:32.114Z,1.58
2022-09-01T04:25:00.084Z,1.05
2022-09-01T04:27:28.901Z,1.75
2022-09-01T04:29:57.786Z,2.60
2022-09-01T04:32:29.055Z,2.15
2022-09-01T04:35:01.658Z,2.85
2022-09-01T04:37:30.290Z,2.08
2022-09-01T04:40:02.454Z,0.77
2022-09-01T04:42:32.723Z,2.80
2022-09-01T04:45:10.798Z,1.38
2022-09-01T04:47:45.568Z,0.80
2022-09-01T04:50:19.222Z,1.25
2022-09-01T04:53:18.560Z,0.50
2022-09-01T04:55:50.017Z,2.75
2022-09-01T04:58:22.524Z,0.93
2022-09-01T05:03:26.693Z,1.13
2022-09-01T05:06:02.703Z,1.58
2022-09-01T05:08:35.482Z,1.35
2022-09-01T05:11:08.253Z,0.40
2022-09-01T05:13:39.848Z,2.05
2022-09-01T05:16:13.221Z,1.80
2022-09-01T05:18:47.914Z,1.25
2022-09-01T05:21:22.632Z,1.20
2022-09-01T05:23:51.988Z,0.93
2022-09-01T05:26:26.427Z,2.28
2022-09-01T05:29:04.247Z,1.95
2022-09-01T05:31:35.229Z,0.95
2022-09-01T05:34:05.182Z,1.30
2022-09-01T05:36:33.802Z,0.53
2022-09-01T05:39:07.554Z,1.63
2022-09-01T05:41:35.737Z,1.67
2022-09-01T05:44:07.186Z,0.80
2022-09-01T05:46:40.027Z,2.25
2022-09-01T05:49:13.929Z,2.03
2022-09-01T05:51:53.329Z,1.30
2022-09-01T05:54:28.041Z,0.77
2022-09-01T05:57:12.850Z,3.33
2022-09-01T05:59:53.910Z,2.58
2022-09-01T06:02:26.878Z,3.08
2022-09-01T06:04:57.471Z,1.80
2022-09-01T06:07:31.480Z,3.67
2022-09-01T06:10:02.369Z,4.10
2022-09-01T06:12:30.459Z,3.05
2022-09-01T06:14:58.461Z,1.15
2022-09-01T06:17:30.251Z,2.95
2022-09-01T06:20:02.109Z,2.70
2022-09-01T06:22:31.024Z,2.67
2022-09-01T06:25:02.614Z,0.68
2022-09-01T06:27:44.527Z,5.25
2022-09-01T06:30:23.867Z,9.35
2022-09-01T06:32:57.267Z,1.85
2022-09-01T06:35:29.636Z,0.75
2022-09-01T06:37:58.904Z,2.70
2022-09-01T06:40:48.570Z,0.73
2022-09-01T06:43:20.574Z,1.40
2022-09-01T06:45:54.876Z,0.60
2022-09-01T06:48:25.638Z,4.60
2022-09-01T06:51:20.927Z,2.25
2022-09-01T06:53:57.113Z,2.28
2022-09-01T06:56:34.046Z,1.45
2022-09-01T06:59:11.581Z,2.00
2022-09-01T07:01:40.098Z,0.85
2022-09-01T07:04:12.875Z,0.65
2022-09-01T07:07:00.508Z,2.58
2022-09-01T07:09:47.429Z,1.15
2022-09-01T07:12:31.014Z,4.20
2022-09-01T07:17:50.316Z,1.13
2022-09-01T07:20:24.656Z,1.15
2022-09-01T07:23:10.480Z,0.93
2022-09-01T07:26:02.194Z,0.63
2022-09-01T07:28:37.867Z,1.88
2022-09-01T07:42:56.939Z,0.93
2022-09-01T07:45:59.390Z,1.38
2022-09-01T07:49:01.257Z,1.50
2022-09-01T07:51:37.763Z,2.00
2022-09-01T07:54:07.250Z,0.60
2022-09-01T07:56:39.740Z,1.00
2022-09-01T07:59:14.812Z,0.90
2022-09-01T08:02:07.162Z,3.45
2022-09-01T08:04:35.423Z,0.97
2022-09-01T08:07:05.777Z,3.83
2022-09-01T08:09:43.783Z,1.33
2022-09-01T08:12:13.446Z,1.10
2022-09-01T08:14:47.106Z,3.72
2022-09-01T08:17:32.992Z,1.10
2022-09-01T08:20:09.371Z,2.05
2022-09-01T08:22:50.658Z,2.75
2022-09-01T08:25:25.073Z,5.13
2022-09-01T08:28:02.690Z,2.25
2022-09-01T08:30:35.736Z,1.40
2022-09-01T08:33:11.663Z,2.38
2022-09-01T08:35:47.735Z,1.73
2022-09-01T08:38:16.410Z,2.20
2022-09-01T08:40:57.179Z,3.22
2022-09-01T08:43:58.555Z,2.90
2022-09-01T08:46:39.104Z,1.50
2022-09-01T08:49:26.912Z,2.25
2022-09-01T08:52:37.374Z,0.93
2022-09-01T08:55:27.514Z,3.42
2022-09-01T08:57:59.890Z,0.88
2022-09-01T09:00:39.542Z,2.95
2022-09-01T09:03:50.549Z,2.55
2022-09-01T09:06:25.946Z,1.70
2022-09-01T09:09:08.062Z,1.48
2022-09-01T09:11:53.758Z,3.17
2022-09-01T09:15:07.024Z,1.27
2022-09-01T09:17:47.782Z,1.58
2022-09-01T09:20:16.014Z,0.95
2022-09-01T09:22:48.814Z,0.43
2022-09-01T09:25:19.475Z,1.05
2022-09-01T09:28:00.093Z,0.73
2022-09-01T09:30:31.518Z,0.80
2022-09-01T09:33:44.264Z,3.22
2022-09-01T09:35:57.639Z,3.08
2022-09-01T09:38:29.470Z,1.00
2022-09-01T09:41:19.000Z,2.70
2022-09-01T09:44:22.862Z,2.47
2022-09-01T09:46:51.745Z,4.82
2022-09-01T09:49:34.881Z,2.58
2022-09-01T09:52:10.639Z,3.70
2022-09-01T09:54:59.109Z,0.98
2022-09-01T09:57:27.547Z,2.42
2022-09-01T10:00:09.516Z,2.35
2022-09-01T10:02:46.439Z,1.02
2022-09-01T10:05:43.099Z,1.85
2022-09-01T10:08:37.548Z,1.83
2022-09-01T10:11:08.093Z,2.03
2022-09-01T10:13:36.939Z,5.43
2022-09-01T10:16:21.912Z,4.90
2022-09-01T10:18:52.513Z,2.95
2022-09-01T10:21:43.119Z,5.57
2022-09-01T10:24:30.991Z,2.42
2022-09-01T10:27:13.866Z,1.10
2022-09-01T10:29:50.868Z,1.77
2022-09-01T10:32:42.146Z,3.20
2022-09-01T10:35:24.080Z,1.85
2022-09-01T10:37:53.632Z,4.63
2022-09-01T10:40:43.361Z,3.85
2022-09-01T10:43:50.012Z,3.38
2022-09-01T10:46:38.770Z,2.80
2022-09-01T10:49:29.666Z,1.33
2022-09-01T10:52:03.208Z,1.25
2022-09-01T10:54:50.776Z,1.50
2022-09-01T10:57:27.866Z,1.05
2022-09-01T10:59:58.571Z,1.48
2022-09-01T11:02:28.780Z,2.85
2022-09-01T11:05:02.357Z,1.45
2022-09-01T11:07:59.801Z,1.50
2022-09-01T11:10:41.847Z,0.70
2022-09-01T11:13:45.249Z,1.15
2022-09-01T11:16:46.675Z,1.88
2022-09-01T11:19:18.287Z,1.55
2022-09-01T11:21:46.778Z,1.00
2022-09-01T11:24:39.641Z,1.77
2022-09-01T11:27:12.265Z,1.52
2022-09-01T11:30:06.950Z,1.35
2022-09-01T11:32:40.803Z,1.17
2022-09-01T11:35:21.720Z,3.05
2022-09-01T11:37:55.022Z,2.95
2022-09-01T11:40:32.584Z,3.90
2022-09-01T11:43:16.591Z,1.80
2022-09-01T11:46:17.821Z,0.75
2022-09-01T11:48:53.043Z,0.63
2022-09-01T11:51:21.564Z,0.65
2022-09-01T11:53:53.126Z,1.25
2022-09-01T11:56:28.255Z,0.90
2022-09-01T11:58:56.876Z,1.70
2022-09-01T12:01:36.431Z,0.93
2022-09-01T12:04:27.672Z,1.08
2022-09-01T12:07:07.975Z,2.05
2022-09-01T12:09:51.588Z,0.80
2022-09-01T12:12:33.929Z,1.40
2022-09-01T12:15:20.153Z,1.02
2022-09-01T12:17:47.969Z,2.22
2022-09-01T12:20:32.596Z,2.17
2022-09-01T12:23:02.489Z,1.67
2022-09-01T12:25:34.137Z,2.08
2022-09-01T12:28:06.110Z,1.63
2022-09-01T12:30:39.714Z,1.02
2022-09-01T12:33:28.534Z,2.72
2022-09-01T12:36:22.531Z,1.35
2022-09-01T12:38:52.897Z,1.67
2022-09-01T12:41:39.006Z,0.82
2022-09-01T12:44:32.023Z,0.70
2022-09-01T12:47:29.738Z,2.00
2022-09-01T12:49:57.618Z,2.35
2022-09-01T12:52:29.277Z,0.80
2022-09-01T12:55:00.245Z,0.68
2022-09-01T12:57:35.260Z,1.70
2022-09-01T13:00:32.586Z,2.35
2022-09-01T13:03:05.270Z,1.63
2022-09-01T13:05:42.647Z,1.02
2022-09-01T13:08:19.430Z,3.95
2022-09-01T13:10:53.562Z,0.82
2022-09-01T13:13:25.979Z,4.20
2022-09-01T13:16:01.731Z,1.95
2022-09-01T13:18:30.952Z,0.43
2022-09-01T13:20:59.744Z,4.13
2022-09-01T13:23:29.146Z,2.22
2022-09-01T13:25:59.184Z,1.20
2022-09-01T13:36:44.550Z,2.00
2022-09-01T13:39:15.638Z,1.30
2022-09-01T13:41:44.492Z,2.55
2022-09-01T13:44:12.902Z,1.08
2022-09-01T13:52:21.804Z,0.63
2022-09-01T13:54:49.937Z,3.78
2022-09-01T13:57:19.815Z,0.98
2022-09-01T13:59:47.653Z,1.30
2022-09-01T14:02:15.720Z,4.07
2022-09-01T14:04:45.480Z,1.50
2022-09-01T14:07:14.132Z,2.03
2022-09-01T14:09:42.527Z,1.73
2022-09-01T14:12:10.682Z,0.75
2022-09-01T14:17:27.041Z,4.72
2022-09-01T14:19:57.926Z,0.63
2022-09-01T14:22:26.795Z,2.50
2022-09-01T14:24:56.503Z,1.33
2022-09-01T14:27:24.374Z,1.88
2022-09-01T14:29:54.854Z,2.95
2022-09-01T14:32:27.058Z,0.95
2022-09-01T14:34:56.994Z,1.17
2022-09-01T14:37:25.379Z,0.28
2022-09-01T14:39:56.895Z,1.23
2022-09-01T14:42:29.273Z,2.97
2022-09-01T14:44:57.597Z,1.83
2022-09-01T14:47:25.802Z,1.67
2022-09-01T14:49:54.685Z,3.78
2022-09-01T14:52:23.257Z,4.82
2022-09-01T14:54:52.088Z,0.77
2022-09-01T14:57:29.781Z,0.47
2022-09-01T15:00:01.114Z,0.30
2022-09-01T15:02:29.446Z,1.70
2022-09-01T15:04:57.472Z,11.43
2022-09-01T15:07:25.815Z,13.43
2022-09-01T15:09:53.758Z,4.35
2022-09-01T15:12:22.862Z,4.57
2022-09-01T15:14:51.530Z,2.60
2022-09-01T15:17:19.441Z,8.85
2022-09-01T15:19:47.484Z,5.95
2022-09-01T15:22:16.678Z,1.13
2022-09-01T15:24:45.061Z,1.15
2022-09-01T15:27:13.300Z,0.70
2022-09-01T15:29:48.350Z,0.80
2022-09-01T15:32:27.559Z,4.40
2022-09-01T15:34:57.459Z,3.42
2022-09-01T15:37:25.542Z,10.60
2022-09-01T15:39:53.489Z,6.00
2022-09-01T15:42:22.075Z,10.63
2022-09-01T15:44:50.094Z,39.38
2022-09-01T15:47:18.241Z,18.85
2022-09-01T15:49:47.331Z,1.13
2022-09-01T15:52:17.262Z,0.50
2022-09-01T15:54:45.222Z,0.98
2022-09-01T15:57:13.543Z,1.63
2022-09-01T15:59:43.384Z,5.65
2022-09-01T16:02:15.534Z,1.10
2022-09-01T16:04:45.031Z,3.30
2022-09-01T16:07:13.392Z,2.77
2022-09-01T16:09:41.101Z,2.17
2022-09-01T16:12:09.826Z,0.70
2022-09-01T16:14:37.617Z,3.97
2022-09-01T16:17:26.274Z,1.60
2022-09-01T16:20:04.112Z,2.47
2022-09-01T16:22:45.344Z,2.45
2022-09-01T16:25:27.464Z,1.13
2022-09-01T16:27:56.301Z,3.05
2022-09-01T16:30:29.555Z,3.30
2022-09-01T16:33:04.752Z,0.90
2022-09-01T16:36:17.726Z,0.95
2022-09-01T16:39:08.327Z,2.05
2022-09-01T16:41:50.613Z,2.45
2022-09-01T16:44:31.656Z,1.67
2022-09-01T16:47:29.817Z,1.00
2022-09-01T16:50:15.200Z,3.80
2022-09-01T16:53:08.804Z,6.63
2022-09-01T16:55:44.830Z,4.28
2022-09-01T16:58:44.757Z,2.03
2022-09-01T17:01:42.059Z,5.10
2022-09-01T17:04:31.894Z,2.78
2022-09-01T17:07:30.062Z,6.90
2022-09-01T17:10:17.136Z,3.90
2022-09-01T17:12:56.224Z,2.28
2022-09-01T17:15:42.520Z,2.75
2022-09-01T17:18:39.909Z,1.63
2022-09-01T17:21:21.249Z,9.05
2022-09-01T17:24:13.601Z,39.33
2022-09-01T17:26:50.900Z,41.85
2022-09-01T17:29:32.824Z,37.80
2022-09-01T17:32:30.934Z,45.50
2022-09-01T17:35:36.145Z,37.97
2022-09-01T17:39:00.481Z,36.53
2022-09-01T17:41:56.606Z,23.40
2022-09-01T17:44:56.557Z,7.43
2022-09-01T17:50:31.213Z,13.63
2022-09-01T17:53:43.105Z,7.32
2022-09-01T17:56:27.205Z,6.70
2022-09-01T17:59:23.079Z,6.47
2022-09-01T18:02:26.780Z,7.18
2022-09-01T18:05:23.288Z,4.07
2022-09-01T18:08:15.684Z,4.73
2022-09-01T18:11:16.869Z,23.77
2022-09-01T18:14:00.045Z,7.88
2022-09-01T18:16:37.705Z,23.90
2022-09-01T18:19:26.962Z,309.08
2022-09-01T18:22:04.096Z,140.20
2022-09-01T18:24:49.366Z,124.18
2022-09-01T18:27:18.743Z,90.95
2022-09-01T18:29:54.153Z,80.93
2022-09-01T18:35:39.752Z,118.85
2022-09-01T18:38:40.031Z,45.55
2022-09-01T18:41:48.929Z,13.35
2022-09-01T18:45:05.540Z,5.22
2022-09-01T18:47:57.806Z,4.43
2022-09-01T18:50:59.668Z,3.20
2022-09-01T18:53:51.631Z,4.75
2022-09-01T18:56:58.206Z,10.77
2022-09-01T18:59:59.645Z,18.13
2022-09-01T19:02:58.049Z,9.10
2022-09-01T19:05:36.989Z,14.65
2022-09-01T19:08:30.457Z,32.88
2022-09-01T19:11:14.609Z,43.63
2022-09-01T19:14:16.663Z,55.65
2022-09-01T19:16:58.865Z,36.75
2022-09-01T19:19:49.267Z,14.65
2022-09-01T19:22:45.559Z,10.45
2022-09-01T19:25:37.075Z,11.30
2022-09-01T19:28:41.997Z,9.20
2022-09-01T19:31:13.586Z,11.20
2022-09-01T19:33:51.387Z,6.88
2022-09-01T19:36:39.850Z,8.32
2022-09-01T19:39:22.172Z,13.80
2022-09-01T19:42:04.318Z,12.90
2022-09-01T19:45:22.394Z,8.38
2022-09-01T19:48:06.440Z,12.10
2022-09-01T19:50:47.821Z,5.30
2022-09-01T19:54:05.249Z,6.57
2022-09-01T19:57:03.570Z,5.45
2022-09-01T20:00:07.057Z,10.80
2022-09-01T20:02:50.414Z,12.90
2022-09-01T20:05:40.931Z,9.65
2022-09-01T20:08:40.234Z,13.25
2022-09-01T20:11:37.144Z,19.53
2022-09-01T20:14:20.507Z,18.58
2022-09-01T20:16:55.953Z,11.00
2022-09-01T20:19:37.712Z,8.30
2022-09-01T20:22:55.597Z,6.53
2022-09-01T20:25:33.830Z,5.80
2022-09-01T20:28:25.773Z,7.00
2022-09-01T20:31:17.201Z,7.68
2022-09-01T20:34:07.848Z,7.63
2022-09-01T20:36:53.545Z,6.88
2022-09-01T20:40:02.184Z,11.35
2022-09-01T20:45:28.241Z,6.20
2022-09-01T20:48:17.421Z,4.97
2022-09-01T20:50:52.466Z,5.95
2022-09-01T20:53:28.445Z,6.70
2022-09-01T20:56:14.371Z,8.23
2022-09-01T20:59:00.941Z,6.20
2022-09-01T21:02:03.478Z,5.18
2022-09-01T21:04:57.808Z,5.03
2022-09-01T21:07:46.405Z,4.35
2022-09-01T21:10:25.086Z,5.68
2022-09-01T21:13:01.761Z,3.90
2022-09-01T21:15:51.211Z,4.20
2022-09-01T21:18:37.448Z,3.10
2022-09-01T21:21:45.319Z,5.10
2022-09-01T21:24:13.887Z,3.72
2022-09-01T21:26:45.183Z,3.15
2022-09-01T21:29:54.529Z,2.67
2022-09-01T21:32:23.674Z,2.75
2022-09-01T21:34:53.830Z,2.50
2022-09-01T21:39:54.318Z,3.85
2022-09-01T21:42:35.023Z,2.88
2022-09-01T21:45:06.518Z,1.77
2022-09-01T21:47:35.247Z,1.70
2022-09-01T21:50:04.742Z,1.90
2022-09-01T21:52:33.018Z,2.40
2022-09-01T21:55:00.844Z,2.88
2022-09-01T21:57:28.841Z,3.70
2022-09-01T21:59:56.938Z,1.40
2022-09-01T22:02:28.486Z,1.70
2022-09-01T22:04:56.585Z,4.55
2022-09-01T22:07:24.774Z,2.42
2022-09-01T22:09:52.586Z,1.60
2022-09-01T22:12:20.373Z,3.28
2022-09-01T22:14:50.794Z,2.38
2022-09-01T22:17:20.325Z,5.22
2022-09-01T22:19:49.135Z,4.72
2022-09-01T22:22:17.346Z,4.13
2022-09-01T22:24:45.184Z,6.18
2022-09-01T22:27:12.959Z,1.70
2022-09-01T22:29:41.217Z,4.60
2022-09-01T22:32:09.296Z,3.05
2022-09-01T22:34:37.199Z,2.35
2022-09-01T22:37:05.635Z,2.90
2022-09-01T22:39:33.595Z,2.08
2022-09-01T22:42:02.004Z,1.58
2022-09-01T22:44:30.026Z,3.25
2022-09-01T22:46:58.631Z,1.30
2022-09-01T22:49:27.937Z,1.15
2022-09-01T22:51:55.957Z,2.85
2022-09-01T22:54:23.722Z,3.10
2022-09-01T22:56:52.637Z,1.38
2022-09-01T22:59:22.769Z,3.53
2022-09-01T23:01:51.561Z,0.95
2022-09-01T23:04:19.311Z,4.68
2022-09-01T23:06:52.356Z,2.22
2022-09-01T23:09:21.360Z,2.10
2022-09-01T23:11:49.783Z,1.83
2022-09-01T23:14:18.734Z,1.13
2022-09-01T23:16:47.615Z,1.58
2022-09-01T23:19:22.174Z,2.28
2022-09-01T23:21:52.046Z,3.55
2022-09-01T23:24:20.857Z,2.30
2022-09-01T23:26:49.922Z,1.67
2022-09-01T23:29:18.311Z,1.13
2022-09-01T23:31:46.706Z,1.10
2022-09-01T23:34:16.748Z,1.48
2022-09-01T23:36:44.853Z,2.58
2022-09-01T23:39:13.095Z,1.90
2022-09-01T23:41:41.862Z,1.67
2022-09-01T23:44:12.303Z,3.45
2022-09-01T23:46:46.412Z,1.23
2022-09-01T23:49:18.112Z,0.80
2022-09-01T23:51:47.778Z,4.35
2022-09-01T23:54:16.155Z,2.08
2022-09-01T23:56:43.819Z,2.65
2022-09-01T23:59:12.316Z,1.85
